sensor_id;sensor_type;location;lat;lon;timestamp;pressure;altitude;pressure_sealevel;temperature;humidity
31088;BME280;17745;55.914;37.554;2023-12-28T00:59:22;98227.91;;;1.01;61.35
31088;BME280;17745;55.914;37.554;2023-12-28T01:01:49;98227.91;;;1.01;61.30
31088;BME280;17745;55.914;37.554;2023-12-28T01:04:17;98226.91;;;1.02;61.30
31088;BME280;17745;55.914;37.554;2023-12-28T01:06:45;98220.47;;;1.05;61.18
31088;BME280;17745;55.914;37.554;2023-12-28T01:09:12;98227.47;;;1.04;61.17
31088;BME280;17745;55.914;37.554;2023-12-28T01:11:42;98218.88;;;1.04;61.19
31088;BME280;17745;55.914;37.554;2023-12-28T01:14:11;98226.63;;;1.10;61.07
31088;BME280;17745;55.914;37.554;2023-12-28T01:16:39;98230.41;;;1.14;60.99
31088;BME280;17745;55.914;37.554;2023-12-28T01:19:10;98232.19;;;1.14;60.94
31088;BME280;17745;55.914;37.554;2023-12-28T01:21:40;98240.03;;;1.14;60.93
31088;BME280;17745;55.914;37.554;2023-12-28T01:24:23;98234.22;;;1.12;61.00
31088;BME280;17745;55.914;37.554;2023-12-28T01:26:52;98248.47;;;1.09;61.02
31088;BME280;17745;55.914;37.554;2023-12-28T01:29:21;98248.28;;;1.11;61.06
31088;BME280;17745;55.914;37.554;2023-12-28T01:31:56;98242.06;;;1.12;60.98
31088;BME280;17745;55.914;37.554;2023-12-28T01:34:27;98246.47;;;1.11;61.05
31088;BME280;17745;55.914;37.554;2023-12-28T01:36:55;98242.25;;;1.10;61.10
31088;BME280;17745;55.914;37.554;2023-12-28T01:39:22;98239.87;;;1.09;61.16
31088;BME280;17745;55.914;37.554;2023-12-28T01:41:51;98238.06;;;1.09;61.23
31088;BME280;17745;55.914;37.554;2023-12-28T01:44:19;98241.25;;;1.11;61.12
31088;BME280;17745;55.914;37.554;2023-12-28T01:46:46;98248.22;;;1.18;61.07
31088;BME280;17745;55.914;37.554;2023-12-28T01:49:16;98258.81;;;1.23;60.86
31088;BME280;17745;55.914;37.554;2023-12-28T01:51:45;98264.00;;;1.23;60.70
31088;BME280;17745;55.914;37.554;2023-12-28T01:54:18;98253.00;;;1.21;60.76
31088;BME280;17745;55.914;37.554;2023-12-28T01:56:53;98264.44;;;1.20;60.79
31088;BME280;17745;55.914;37.554;2023-12-28T01:59:21;98263.63;;;1.19;60.82
31088;BME280;17745;55.914;37.554;2023-12-28T02:01:48;98262.44;;;1.22;60.77
31088;BME280;17745;55.914;37.554;2023-12-28T02:04:18;98268.22;;;1.24;60.75
31088;BME280;17745;55.914;37.554;2023-12-28T02:06:51;98270.41;;;1.27;60.67
31088;BME280;17745;55.914;37.554;2023-12-28T02:09:22;98262.00;;;1.25;60.68
31088;BME280;17745;55.914;37.554;2023-12-28T02:11:50;98268.41;;;1.22;60.80
31088;BME280;17745;55.914;37.554;2023-12-28T02:14:18;98273.28;;;1.19;60.84
31088;BME280;17745;55.914;37.554;2023-12-28T02:17:15;98268.72;;;1.14;60.97
31088;BME280;17745;55.914;37.554;2023-12-28T02:25:47;98279.75;;;1.09;61.02
31088;BME280;17745;55.914;37.554;2023-12-28T02:28:17;98282.38;;;1.09;61.11
31088;BME280;17745;55.914;37.554;2023-12-28T02:30:48;98279.75;;;1.09;61.07
31088;BME280;17745;55.914;37.554;2023-12-28T02:33:18;98284.19;;;1.09;61.07
31088;BME280;17745;55.914;37.554;2023-12-28T02:35:51;98287.59;;;1.09;61.08
31088;BME280;17745;55.914;37.554;2023-12-28T02:38:20;98286.22;;;1.07;61.03
31088;BME280;17745;55.914;37.554;2023-12-28T02:40:53;98289.03;;;1.05;61.06
31088;BME280;17745;55.914;37.554;2023-12-28T02:43:24;98289.84;;;1.06;61.09
31088;BME280;17745;55.914;37.554;2023-12-28T02:45:59;98297.00;;;1.10;60.98
31088;BME280;17745;55.914;37.554;2023-12-28T02:48:27;98293.81;;;1.08;60.90
31088;BME280;17745;55.914;37.554;2023-12-28T02:50:57;98287.44;;;1.04;60.99
31088;BME280;17745;55.914;37.554;2023-12-28T02:53:25;98288.63;;;1.02;61.06
31088;BME280;17745;55.914;37.554;2023-12-28T02:56:25;98291.47;;;1.00;61.10
31088;BME280;17745;55.914;37.554;2023-12-28T02:58:54;98285.25;;;1.01;61.20
31088;BME280;17745;55.914;37.554;2023-12-28T03:01:24;98289.47;;;1.02;61.13
31088;BME280;17745;55.914;37.554;2023-12-28T03:03:55;98295.25;;;1.04;61.12
31088;BME280;17745;55.914;37.554;2023-12-28T03:06:27;98288.00;;;1.06;61.04
31088;BME280;17745;55.914;37.554;2023-12-28T03:09:27;98296.66;;;1.07;60.97
31088;BME280;17745;55.914;37.554;2023-12-28T03:11:57;98297.84;;;1.04;61.08
31088;BME280;17745;55.914;37.554;2023-12-28T03:14:31;98293.66;;;1.03;61.15
31088;BME280;17745;55.914;37.554;2023-12-28T03:16:59;98296.84;;;1.05;61.13
31088;BME280;17745;55.914;37.554;2023-12-28T03:19:48;98298.25;;;1.08;61.04
31088;BME280;17745;55.914;37.554;2023-12-28T03:22:20;98306.84;;;1.08;61.00
31088;BME280;17745;55.914;37.554;2023-12-28T03:25:05;98310.09;;;1.04;61.06
31088;BME280;17745;55.914;37.554;2023-12-28T03:30:40;98315.56;;;0.95;61.03
31088;BME280;17745;55.914;37.554;2023-12-28T03:33:13;98322.84;;;0.87;61.20
31088;BME280;17745;55.914;37.554;2023-12-28T03:35:57;98318.22;;;0.89;61.18
31088;BME280;17745;55.914;37.554;2023-12-28T03:38:42;98325.03;;;0.90;61.12
31088;BME280;17745;55.914;37.554;2023-12-28T03:41:15;98321.81;;;0.88;61.09
31088;BME280;17745;55.914;37.554;2023-12-28T03:44:03;98322.06;;;0.86;61.13
31088;BME280;17745;55.914;37.554;2023-12-28T03:47:26;98326.03;;;0.89;61.05
31088;BME280;17745;55.914;37.554;2023-12-28T03:50:13;98336.44;;;0.89;61.04
31088;BME280;17745;55.914;37.554;2023-12-28T03:52:41;98325.66;;;0.85;61.09
31088;BME280;17745;55.914;37.554;2023-12-28T04:11:55;98335.97;;;0.73;61.48
31088;BME280;17745;55.914;37.554;2023-12-28T04:14:26;98337.13;;;0.77;61.35
31088;BME280;17745;55.914;37.554;2023-12-28T04:17:15;98340.09;;;0.81;61.28
31088;BME280;17745;55.914;37.554;2023-12-28T04:19:45;98349.75;;;0.80;61.25
31088;BME280;17745;55.914;37.554;2023-12-28T04:22:15;98343.12;;;0.78;61.32
31088;BME280;17745;55.914;37.554;2023-12-28T04:25:24;98348.16;;;0.79;61.28
31088;BME280;17745;55.914;37.554;2023-12-28T04:28:15;98355.53;;;0.82;61.06
31088;BME280;17745;55.914;37.554;2023-12-28T04:31:07;98354.56;;;0.77;61.19
31088;BME280;17745;55.914;37.554;2023-12-28T04:34:42;98356.59;;;0.75;61.12
31088;BME280;17745;55.914;37.554;2023-12-28T04:37:46;98359.88;;;0.63;61.29
31088;BME280;17745;55.914;37.554;2023-12-28T04:41:19;98356.09;;;0.52;61.49
31088;BME280;17745;55.914;37.554;2023-12-28T05:01:25;98379.34;;;0.47;61.68
31088;BME280;17745;55.914;37.554;2023-12-28T05:04:14;98381.53;;;0.50;61.62
31088;BME280;17745;55.914;37.554;2023-12-28T05:10:25;98392.78;;;0.51;61.56
31088;BME280;17745;55.914;37.554;2023-12-28T05:12:59;98383.53;;;0.55;61.53
31088;BME280;17745;55.914;37.554;2023-12-28T05:15:30;98398.72;;;0.65;61.37
31088;BME280;17745;55.914;37.554;2023-12-28T05:41:47;98409.13;;;0.71;61.28
31088;BME280;17745;55.914;37.554;2023-12-28T05:44:22;98414.91;;;0.74;61.24
31088;BME280;17745;55.914;37.554;2023-12-28T05:47:44;98418.72;;;0.71;61.31
31088;BME280;17745;55.914;37.554;2023-12-28T05:50:13;98426.75;;;0.76;61.12
31088;BME280;17745;55.914;37.554;2023-12-28T05:52:48;98426.75;;;0.69;61.09
31088;BME280;17745;55.914;37.554;2023-12-28T05:56:00;98432.44;;;0.53;61.35
31088;BME280;17745;55.914;37.554;2023-12-28T06:01:27;98444.63;;;0.59;61.17
31088;BME280;17745;55.914;37.554;2023-12-28T06:04:09;98450.62;;;0.66;61.06
31088;BME280;17745;55.914;37.554;2023-12-28T06:06:43;98459.81;;;0.76;61.00
31088;BME280;17745;55.914;37.554;2023-12-28T06:09:12;98459.34;;;0.85;60.93
31088;BME280;17745;55.914;37.554;2023-12-28T06:11:41;98459.75;;;0.89;60.95
31088;BME280;17745;55.914;37.554;2023-12-28T06:14:13;98467.13;;;0.99;61.00
31088;BME280;17745;55.914;37.554;2023-12-28T06:22:51;98475.13;;;1.04;61.05
31088;BME280;17745;55.914;37.554;2023-12-28T06:25:21;98483.16;;;1.03;61.11
31088;BME280;17745;55.914;37.554;2023-12-28T06:27:51;98486.34;;;1.05;61.06
31088;BME280;17745;55.914;37.554;2023-12-28T06:30:19;98496.41;;;1.01;61.08
31088;BME280;17745;55.914;37.554;2023-12-28T06:32:47;98507.25;;;0.98;60.88
31088;BME280;17745;55.914;37.554;2023-12-28T06:35:19;98507.50;;;0.83;61.14
31088;BME280;17745;55.914;37.554;2023-12-28T06:40:42;98516.59;;;0.53;61.74
31088;BME280;17745;55.914;37.554;2023-12-28T06:43:12;98514.34;;;0.64;61.35
31088;BME280;17745;55.914;37.554;2023-12-28T06:46:04;98516.53;;;0.67;61.24
31088;BME280;17745;55.914;37.554;2023-12-28T06:48:48;98515.75;;;0.73;61.07
31088;BME280;17745;55.914;37.554;2023-12-28T06:52:12;98525.16;;;0.74;60.88
31088;BME280;17745;55.914;37.554;2023-12-28T06:54:54;98522.81;;;0.52;61.29
31088;BME280;17745;55.914;37.554;2023-12-28T07:21:35;98552.06;;;0.48;62.02
31088;BME280;17745;55.914;37.554;2023-12-28T07:24:26;98545.44;;;0.59;61.77
31088;BME280;17745;55.914;37.554;2023-12-28T07:27:37;98559.81;;;0.68;61.57
31088;BME280;17745;55.914;37.554;2023-12-28T07:30:27;98558.44;;;0.65;61.65
31088;BME280;17745;55.914;37.554;2023-12-28T07:43:35;98567.28;;;0.57;61.13
31088;BME280;17745;55.914;37.554;2023-12-28T07:46:32;98577.63;;;0.84;60.75
31088;BME280;17745;55.914;37.554;2023-12-28T07:49:06;98578.97;;;1.07;60.31
31088;BME280;17745;55.914;37.554;2023-12-28T07:51:34;98571.00;;;0.95;60.31
31088;BME280;17745;55.914;37.554;2023-12-28T07:54:02;98582.59;;;1.06;60.08
31088;BME280;17745;55.914;37.554;2023-12-28T07:56:59;98589.63;;;1.12;59.97
31088;BME280;17745;55.914;37.554;2023-12-28T08:04:56;98595.50;;;1.47;59.48
31088;BME280;17745;55.914;37.554;2023-12-28T08:07:24;98603.28;;;1.53;59.25
31088;BME280;17745;55.914;37.554;2023-12-28T08:09:54;98600.53;;;1.41;59.02
31088;BME280;17745;55.914;37.554;2023-12-28T08:12:38;98599.16;;;1.32;58.96
31088;BME280;17745;55.914;37.554;2023-12-28T08:15:11;98603.12;;;1.41;58.80
31088;BME280;17745;55.914;37.554;2023-12-28T08:17:39;98606.78;;;1.27;58.81
31088;BME280;17745;55.914;37.554;2023-12-28T08:20:09;98597.63;;;1.18;58.81
31088;BME280;17745;55.914;37.554;2023-12-28T08:25:46;98626.34;;;0.91;59.13
31088;BME280;17745;55.914;37.554;2023-12-28T08:28:50;98620.97;;;0.72;59.58
31088;BME280;17745;55.914;37.554;2023-12-28T08:31:20;98627.38;;;0.69;59.58
31088;BME280;17745;55.914;37.554;2023-12-28T08:33:50;98631.19;;;0.67;59.70
31088;BME280;17745;55.914;37.554;2023-12-28T08:36:26;98620.75;;;0.87;59.33
31088;BME280;17745;55.914;37.554;2023-12-28T08:38:55;98632.13;;;0.99;59.14
31088;BME280;17745;55.914;37.554;2023-12-28T08:41:25;98631.19;;;0.80;59.57
31088;BME280;17745;55.914;37.554;2023-12-28T08:43:53;98649.41;;;0.67;59.94
31088;BME280;17745;55.914;37.554;2023-12-28T08:46:21;98633.56;;;0.89;59.44
31088;BME280;17745;55.914;37.554;2023-12-28T08:49:00;98638.38;;;0.92;59.49
31088;BME280;17745;55.914;37.554;2023-12-28T09:03:53;98653.38;;;1.10;59.47
31088;BME280;17745;55.914;37.554;2023-12-28T09:06:22;98648.81;;;0.78;60.14
31088;BME280;17745;55.914;37.554;2023-12-28T09:08:50;98644.03;;;0.82;59.84
31088;BME280;17745;55.914;37.554;2023-12-28T09:11:34;98659.63;;;0.89;59.99
31088;BME280;17745;55.914;37.554;2023-12-28T09:14:03;98657.81;;;1.03;59.79
31088;BME280;17745;55.914;37.554;2023-12-28T09:16:41;98656.59;;;0.92;60.05
31088;BME280;17745;55.914;37.554;2023-12-28T09:29:48;98659.63;;;1.02;60.00
31088;BME280;17745;55.914;37.554;2023-12-28T09:32:24;98660.97;;;1.18;59.74
31088;BME280;17745;55.914;37.554;2023-12-28T09:35:24;98677.06;;;0.48;60.62
31088;BME280;17745;55.914;37.554;2023-12-28T09:38:13;98661.66;;;0.73;59.91
31088;BME280;17745;55.914;37.554;2023-12-28T09:40:55;98674.81;;;0.11;60.34
31088;BME280;17745;55.914;37.554;2023-12-28T09:43:25;98691.00;;;-0.01;60.58
31088;BME280;17745;55.914;37.554;2023-12-28T11:13:17;98671.38;;;-0.03;57.80
31088;BME280;17745;55.914;37.554;2023-12-28T11:15:53;98673.22;;;0.17;57.50
31088;BME280;17745;55.914;37.554;2023-12-28T11:34:33;98682.47;;;0.80;55.72
31088;BME280;17745;55.914;37.554;2023-12-28T11:37:06;98688.69;;;0.79;55.63
31088;BME280;17745;55.914;37.554;2023-12-28T11:39:35;98689.31;;;0.67;55.54
31088;BME280;17745;55.914;37.554;2023-12-28T11:42:06;98695.72;;;0.65;55.44
31088;BME280;17745;55.914;37.554;2023-12-28T11:44:36;98693.13;;;0.78;55.30
31088;BME280;17745;55.914;37.554;2023-12-28T11:47:10;98689.31;;;0.67;55.29
31088;BME280;17745;55.914;37.554;2023-12-28T11:52:38;98700.13;;;0.64;54.86
31088;BME280;17745;55.914;37.554;2023-12-28T11:55:08;98703.94;;;0.41;54.83
31088;BME280;17745;55.914;37.554;2023-12-28T11:57:56;98725.69;;;-0.35;55.81
31088;BME280;17745;55.914;37.554;2023-12-28T12:00:30;98713.87;;;-0.38;55.88
31088;BME280;17745;55.914;37.554;2023-12-28T12:03:15;98727.78;;;-0.88;56.37
31088;BME280;17745;55.914;37.554;2023-12-28T12:05:59;98716.28;;;-1.00;56.50
31088;BME280;17745;55.914;37.554;2023-12-28T12:15:07;98717.12;;;-0.29;54.94
31088;BME280;17745;55.914;37.554;2023-12-28T12:17:53;98731.47;;;-0.40;54.78
31088;BME280;17745;55.914;37.554;2023-12-28T12:20:28;98742.81;;;-0.48;54.84
31088;BME280;17745;55.914;37.554;2023-12-28T12:23:03;98725.81;;;-0.50;54.72
31088;BME280;17745;55.914;37.554;2023-12-28T12:25:55;98724.19;;;-0.51;54.68
31088;BME280;17745;55.914;37.554;2023-12-28T12:28:28;98726.47;;;-0.77;55.34
31088;BME280;17745;55.914;37.554;2023-12-28T12:31:32;98730.13;;;-0.64;55.15
31088;BME280;17745;55.914;37.554;2023-12-28T12:34:04;98736.00;;;-0.84;55.60
31088;BME280;17745;55.914;37.554;2023-12-28T12:37:00;98734.81;;;-0.81;55.51
31088;BME280;17745;55.914;37.554;2023-12-28T12:42:35;98751.87;;;-0.72;55.04
31088;BME280;17745;55.914;37.554;2023-12-28T12:51:53;98762.03;;;-0.77;54.66
31088;BME280;17745;55.914;37.554;2023-12-28T12:54:23;98765.78;;;-0.58;54.22
31088;BME280;17745;55.914;37.554;2023-12-28T12:57:57;98772.88;;;-0.45;53.79
31088;BME280;17745;55.914;37.554;2023-12-28T13:04:13;98769.66;;;-0.47;53.53
31088;BME280;17745;55.914;37.554;2023-12-28T13:11:16;98778.19;;;-0.53;53.21
31088;BME280;17745;55.914;37.554;2023-12-28T13:14:20;98785.62;;;-0.50;53.14
31088;BME280;17745;55.914;37.554;2023-12-28T13:17:23;98787.47;;;-0.44;52.87
31088;BME280;17745;55.914;37.554;2023-12-28T13:19:53;98773.81;;;-0.53;52.88
31088;BME280;17745;55.914;37.554;2023-12-28T13:22:22;98768.06;;;-0.77;53.15
31088;BME280;17745;55.914;37.554;2023-12-28T13:24:52;98780.91;;;-0.68;52.91
31088;BME280;17745;55.914;37.554;2023-12-28T14:12:46;98770.62;;;-0.13;52.02
31088;BME280;17745;55.914;37.554;2023-12-28T14:15:18;98768.78;;;-0.19;51.89
31088;BME280;17745;55.914;37.554;2023-12-28T14:18:01;98772.41;;;-0.20;51.80
31088;BME280;17745;55.914;37.554;2023-12-28T14:20:46;98773.81;;;-0.18;51.84
31088;BME280;17745;55.914;37.554;2023-12-28T14:23:23;98786.63;;;-0.16;51.80
31088;BME280;17745;55.914;37.554;2023-12-28T14:38:49;98796.97;;;-0.30;51.40
31088;BME280;17745;55.914;37.554;2023-12-28T14:41:30;98781.13;;;-0.35;51.40
31088;BME280;17745;55.914;37.554;2023-12-28T14:44:01;98779.94;;;-0.32;51.31
31088;BME280;17745;55.914;37.554;2023-12-28T14:46:38;98758.94;;;-0.31;51.24
31088;BME280;17745;55.914;37.554;2023-12-28T14:49:35;98758.94;;;-0.66;51.63
31088;BME280;17745;55.914;37.554;2023-12-28T14:52:26;98766.16;;;-0.61;51.39
31088;BME280;17745;55.914;37.554;2023-12-28T14:55:27;98758.63;;;-0.49;51.22
31088;BME280;17745;55.914;37.554;2023-12-28T14:57:57;98757.69;;;-0.35;51.04
31088;BME280;17745;55.914;37.554;2023-12-28T15:00:28;98753.34;;;-0.27;51.06
31088;BME280;17745;55.914;37.554;2023-12-28T15:03:15;98749.53;;;-0.25;51.13
31088;BME280;17745;55.914;37.554;2023-12-28T15:05:48;98740.78;;;-0.17;51.22
31088;BME280;17745;55.914;37.554;2023-12-28T15:08:23;98736.78;;;-0.13;51.27
31088;BME280;17745;55.914;37.554;2023-12-28T15:11:06;98730.19;;;-0.16;51.00
31088;BME280;17745;55.914;37.554;2023-12-28T15:13:36;98722.78;;;-0.12;51.08
31088;BME280;17745;55.914;37.554;2023-12-28T15:16:21;98741.38;;;-0.15;51.16
31088;BME280;17745;55.914;37.554;2023-12-28T15:21:45;98734.78;;;-0.11;51.31
31088;BME280;17745;55.914;37.554;2023-12-28T15:24:13;98732.19;;;-0.18;51.14
31088;BME280;17745;55.914;37.554;2023-12-28T15:26:43;98728.37;;;-0.15;51.11
31088;BME280;17745;55.914;37.554;2023-12-28T15:29:10;98716.38;;;-0.16;51.11
31088;BME280;17745;55.914;37.554;2023-12-28T15:34:32;98710.75;;;-0.20;51.02
31088;BME280;17745;55.914;37.554;2023-12-28T15:40:21;98698.97;;;-0.16;51.16
31088;BME280;17745;55.914;37.554;2023-12-28T15:42:52;98700.34;;;-0.13;51.19
31088;BME280;17745;55.914;37.554;2023-12-28T15:45:21;98700.59;;;-0.08;51.23
31088;BME280;17745;55.914;37.554;2023-12-28T15:47:52;98698.81;;;-0.01;51.23
31088;BME280;17745;55.914;37.554;2023-12-28T15:50:20;98696.03;;;0.08;51.17
31088;BME280;17745;55.914;37.554;2023-12-28T15:52:50;98708.28;;;0.14;51.07
31088;BME280;17745;55.914;37.554;2023-12-28T15:55:21;98716.69;;;0.16;51.02
31088;BME280;17745;55.914;37.554;2023-12-28T15:57:55;98704.44;;;0.17;51.11
31088;BME280;17745;55.914;37.554;2023-12-28T16:00:23;98708.88;;;0.16;51.06
31088;BME280;17745;55.914;37.554;2023-12-28T16:02:58;98709.66;;;0.17;51.06
31088;BME280;17745;55.914;37.554;2023-12-28T16:05:26;98707.06;;;0.17;51.01
31088;BME280;17745;55.914;37.554;2023-12-28T16:07:54;98713.09;;;0.17;51.10
31088;BME280;17745;55.914;37.554;2023-12-28T16:10:22;98712.25;;;0.17;51.17
31088;BME280;17745;55.914;37.554;2023-12-28T16:12:51;98721.69;;;0.18;51.22
31088;BME280;17745;55.914;37.554;2023-12-28T16:18:51;98714.47;;;0.13;51.31
31088;BME280;17745;55.914;37.554;2023-12-28T16:21:21;98709.03;;;0.08;51.45
31088;BME280;17745;55.914;37.554;2023-12-28T16:23:53;98710.03;;;0.07;51.45
31088;BME280;17745;55.914;37.554;2023-12-28T16:26:26;98712.25;;;0.03;51.52
31088;BME280;17745;55.914;37.554;2023-12-28T16:28:54;98707.44;;;0.00;51.64
31088;BME280;17745;55.914;37.554;2023-12-28T16:31:42;98706.00;;;-0.03;51.68
31088;BME280;17745;55.914;37.554;2023-12-28T16:45:57;98702.78;;;-0.11;51.99
31088;BME280;17745;55.914;37.554;2023-12-28T16:48:27;98704.56;;;-0.12;51.95
31088;BME280;17745;55.914;37.554;2023-12-28T16:51:05;98698.75;;;-0.14;51.94
31088;BME280;17745;55.914;37.554;2023-12-28T16:53:36;98714.53;;;-0.22;51.73
31088;BME280;17745;55.914;37.554;2023-12-28T16:56:07;98707.13;;;-0.25;51.71
31088;BME280;17745;55.914;37.554;2023-12-28T16:58:35;98704.13;;;-0.22;51.60
31088;BME280;17745;55.914;37.554;2023-12-28T17:01:10;98710.75;;;-0.20;51.68
31088;BME280;17745;55.914;37.554;2023-12-28T17:03:42;98707.53;;;-0.22;51.62
31088;BME280;17745;55.914;37.554;2023-12-28T17:06:29;98707.91;;;-0.25;51.71
31088;BME280;17745;55.914;37.554;2023-12-28T17:09:17;98708.53;;;-0.23;51.73
31088;BME280;17745;55.914;37.554;2023-12-28T17:11:51;98701.75;;;-0.17;51.78
31088;BME280;17745;55.914;37.554;2023-12-28T17:14:24;98713.19;;;-0.11;51.74
31088;BME280;17745;55.914;37.554;2023-12-28T17:19:53;98720.34;;;-0.20;51.72
31088;BME280;17745;55.914;37.554;2023-12-28T17:22:54;98712.13;;;-0.24;51.73
31088;BME280;17745;55.914;37.554;2023-12-28T17:25:29;98711.34;;;-0.24;51.88
31088;BME280;17745;55.914;37.554;2023-12-28T17:28:03;98714.38;;;-0.14;51.85
31088;BME280;17745;55.914;37.554;2023-12-28T17:30:48;98709.19;;;-0.07;51.80
31088;BME280;17745;55.914;37.554;2023-12-28T17:33:32;98710.91;;;-0.28;52.01
31088;BME280;17745;55.914;37.554;2023-12-28T17:36:03;98708.22;;;-0.48;52.40
31088;BME280;17745;55.914;37.554;2023-12-28T17:38:38;98711.88;;;-0.36;52.07
31088;BME280;17745;55.914;37.554;2023-12-28T17:41:22;98716.31;;;-0.30;51.95
31088;BME280;17745;55.914;37.554;2023-12-28T17:44:17;98705.09;;;-0.30;52.04
31088;BME280;17745;55.914;37.554;2023-12-28T17:47:00;98696.72;;;-0.25;52.09
31088;BME280;17745;55.914;37.554;2023-12-28T17:49:35;98683.91;;;-0.27;52.01
31088;BME280;17745;55.914;37.554;2023-12-28T17:57:53;98680.66;;;-0.36;52.21
31088;BME280;17745;55.914;37.554;2023-12-28T18:03:17;98673.88;;;-0.30;52.26
31088;BME280;17745;55.914;37.554;2023-12-28T18:06:15;98678.53;;;-0.25;52.26
31088;BME280;17745;55.914;37.554;2023-12-28T18:08:47;98670.75;;;-0.19;52.26
31088;BME280;17745;55.914;37.554;2023-12-28T18:12:07;98664.16;;;-0.15;52.19
31088;BME280;17745;55.914;37.554;2023-12-28T18:17:35;98649.91;;;-0.12;52.24
31088;BME280;17745;55.914;37.554;2023-12-28T18:20:20;98649.75;;;-0.10;52.26
31088;BME280;17745;55.914;37.554;2023-12-28T18:22:52;98651.34;;;-0.03;52.19
31088;BME280;17745;55.914;37.554;2023-12-28T18:25:24;98646.75;;;-0.07;52.23
31088;BME280;17745;55.914;37.554;2023-12-28T18:27:59;98639.75;;;-0.07;52.20
31088;BME280;17745;55.914;37.554;2023-12-28T18:30:37;98640.31;;;-0.11;52.37
31088;BME280;17745;55.914;37.554;2023-12-28T18:51:00;98616.88;;;-0.18;52.75
31088;BME280;17745;55.914;37.554;2023-12-28T18:53:30;98614.72;;;-0.08;52.61
31088;BME280;17745;55.914;37.554;2023-12-28T18:56:11;98613.50;;;-0.05;52.51
31088;BME280;17745;55.914;37.554;2023-12-28T18:58:38;98612.13;;;-0.08;52.55
31088;BME280;17745;55.914;37.554;2023-12-28T19:01:07;98604.69;;;-0.11;52.57
31088;BME280;17745;55.914;37.554;2023-12-28T19:03:35;98611.72;;;-0.11;52.59
31088;BME280;17745;55.914;37.554;2023-12-28T19:06:09;98609.50;;;-0.15;52.49
31088;BME280;17745;55.914;37.554;2023-12-28T19:08:41;98608.66;;;-0.28;52.70
31088;BME280;17745;55.914;37.554;2023-12-28T19:11:10;98613.84;;;-0.35;52.89
31088;BME280;17745;55.914;37.554;2023-12-28T19:13:48;98603.63;;;-0.37;52.88
31088;BME280;17745;55.914;37.554;2023-12-28T19:16:48;98608.66;;;-0.35;52.92
31088;BME280;17745;55.914;37.554;2023-12-28T19:19:17;98606.25;;;-0.30;52.81
31088;BME280;17745;55.914;37.554;2023-12-28T19:21:53;98594.84;;;-0.29;52.73
31088;BME280;17745;55.914;37.554;2023-12-28T19:24:33;98600.06;;;-0.29;52.81
31088;BME280;17745;55.914;37.554;2023-12-28T19:27:54;98592.25;;;-0.29;52.80
31088;BME280;17745;55.914;37.554;2023-12-28T19:30:29;98580.63;;;-0.33;52.88
31088;BME280;17745;55.914;37.554;2023-12-28T19:33:28;98578.25;;;-0.28;52.85
31088;BME280;17745;55.914;37.554;2023-12-28T20:25:43;98564.81;;;-0.32;53.27
31088;BME280;17745;55.914;37.554;2023-12-28T20:28:25;98568.25;;;-0.24;53.18
31088;BME280;17745;55.914;37.554;2023-12-28T20:30:58;98559.44;;;-0.23;53.19
31088;BME280;17745;55.914;37.554;2023-12-28T20:33:34;98561.66;;;-0.20;53.23
31088;BME280;17745;55.914;37.554;2023-12-28T20:36:39;98556.66;;;0.25;52.44
31088;BME280;17745;55.914;37.554;2023-12-28T20:39:11;98556.66;;;0.25;52.44
31088;BME280;17745;55.914;37.554;2023-12-28T20:41:38;98556.66;;;-0.15;53.06
31088;BME280;17745;55.914;37.554;2023-12-28T20:44:05;98545.22;;;-0.21;53.22
31088;BME280;17745;55.914;37.554;2023-12-28T20:46:34;98538.22;;;-0.20;53.27
31088;BME280;17745;55.914;37.554;2023-12-28T20:49:01;98535.44;;;-0.25;53.39
31088;BME280;17745;55.914;37.554;2023-12-28T20:51:30;98518.81;;;-0.24;53.44
31088;BME280;17745;55.914;37.554;2023-12-28T20:54:02;98513.81;;;-0.19;53.41
31088;BME280;17745;55.914;37.554;2023-12-28T21:00:05;98501.81;;;-0.07;53.23
31088;BME280;17745;55.914;37.554;2023-12-28T21:02:37;98497.81;;;-0.09;53.26
31088;BME280;17745;55.914;37.554;2023-12-28T21:05:13;98497.22;;;-0.11;53.25
31088;BME280;17745;55.914;37.554;2023-12-28T21:08:44;98498.63;;;-0.09;53.30
31088;BME280;17745;55.914;37.554;2023-12-28T21:22:54;98493.41;;;-0.22;53.63
31088;BME280;17745;55.914;37.554;2023-12-28T21:26:12;98481.00;;;-0.27;53.70
31088;BME280;17745;55.914;37.554;2023-12-28T21:56:48;98470.78;;;-0.15;53.73
31088;BME280;17745;55.914;37.554;2023-12-28T21:59:19;98468.59;;;-0.11;53.71
31088;BME280;17745;55.914;37.554;2023-12-28T22:01:49;98459.78;;;-0.10;53.74
31088;BME280;17745;55.914;37.554;2023-12-28T22:04:21;98455.41;;;-0.10;53.73
31088;BME280;17745;55.914;37.554;2023-12-28T22:06:52;98453.75;;;-0.11;53.75
31088;BME280;17745;55.914;37.554;2023-12-28T22:09:29;98449.56;;;-0.12;53.75
31088;BME280;17745;55.914;37.554;2023-12-28T22:11:59;98452.38;;;-0.13;53.84
31088;BME280;17745;55.914;37.554;2023-12-28T22:14:28;98448.38;;;-0.16;53.88
31088;BME280;17745;55.914;37.554;2023-12-28T22:16:56;98452.97;;;-0.11;53.92
31088;BME280;17745;55.914;37.554;2023-12-28T22:19:23;98438.37;;;-0.06;53.83
31088;BME280;17745;55.914;37.554;2023-12-28T22:21:51;98439.56;;;-0.02;53.74
31088;BME280;17745;55.914;37.554;2023-12-28T22:24:20;98441.34;;;-0.02;53.68
31088;BME280;17745;55.914;37.554;2023-12-28T22:26:48;98417.75;;;-0.14;53.81
31088;BME280;17745;55.914;37.554;2023-12-28T22:29:18;98425.38;;;-0.19;53.93
31088;BME280;17745;55.914;37.554;2023-12-28T22:31:48;98423.75;;;-0.27;54.09
31088;BME280;17745;55.914;37.554;2023-12-28T22:34:16;98422.56;;;-0.31;54.18
31088;BME280;17745;55.914;37.554;2023-12-28T22:36:48;98420.78;;;-0.31;54.16
31088;BME280;17745;55.914;37.554;2023-12-28T22:39:20;98425.75;;;-0.29;54.15
31088;BME280;17745;55.914;37.554;2023-12-28T22:41:51;98423.97;;;-0.28;54.24
31088;BME280;17745;55.914;37.554;2023-12-28T22:44:30;98421.75;;;-0.25;54.19
31088;BME280;17745;55.914;37.554;2023-12-28T22:46:58;98417.16;;;-0.23;54.18
31088;BME280;17745;55.914;37.554;2023-12-28T22:49:28;98417.97;;;-0.22;54.13
31088;BME280;17745;55.914;37.554;2023-12-28T22:51:56;98406.75;;;-0.23;54.16